sensor_id;sensor_type;location;lat;lon;timestamp;P1;durP1;ratioP1;P2;durP2;ratioP2
51636;SDS011;37713;53.254;6.460;2022-11-02T00:01:19;9.90;;;2.25;;
51636;SDS011;37713;53.254;6.460;2022-11-02T00:03:48;7.00;;;1.63;;
51636;SDS011;37713;53.254;6.460;2022-11-02T00:06:13;11.43;;;1.52;;
51636;SDS011;37713;53.254;6.460;2022-11-02T00:08:39;13.15;;;1.92;;
51636;SDS011;37713;53.254;6.460;2022-11-02T00:11:05;11.02;;;1.60;;
51636;SDS011;37713;53.254;6.460;2022-11-02T00:13:31;13.27;;;1.90;;
51636;SDS011;37713;53.254;6.460;2022-11-02T00:15:59;10.48;;;1.85;;
51636;SDS011;37713;53.254;6.460;2022-11-02T00:18:30;12.15;;;1.70;;
51636;SDS011;37713;53.254;6.460;2022-11-02T00:20:58;9.52;;;1.60;;
51636;SDS011;37713;53.254;6.460;2022-11-02T00:23:24;11.02;;;1.42;;
51636;SDS011;37713;53.254;6.460;2022-11-02T00:25:50;10.07;;;1.98;;
51636;SDS011;37713;53.254;6.460;2022-11-02T00:28:18;11.38;;;1.95;;
51636;SDS011;37713;53.254;6.460;2022-11-02T00:30:44;8.02;;;1.20;;
51636;SDS011;37713;53.254;6.460;2022-11-02T00:33:10;7.55;;;1.45;;
51636;SDS011;37713;53.254;6.460;2022-11-02T00:35:36;7.60;;;1.77;;
51636;SDS011;37713;53.254;6.460;2022-11-02T00:38:03;8.68;;;1.50;;
51636;SDS011;37713;53.254;6.460;2022-11-02T00:40:30;12.68;;;1.77;;
51636;SDS011;37713;53.254;6.460;2022-11-02T00:42:55;8.02;;;1.38;;
51636;SDS011;37713;53.254;6.460;2022-11-02T00:45:21;7.22;;;1.25;;
51636;SDS011;37713;53.254;6.460;2022-11-02T00:47:47;6.53;;;1.20;;
51636;SDS011;37713;53.254;6.460;2022-11-02T00:50:14;8.55;;;1.65;;
51636;SDS011;37713;53.254;6.460;2022-11-02T00:52:40;4.75;;;1.00;;
51636;SDS011;37713;53.254;6.460;2022-11-02T00:55:07;8.80;;;1.13;;
51636;SDS011;37713;53.254;6.460;2022-11-02T00:57:34;8.07;;;1.50;;
51636;SDS011;37713;53.254;6.460;2022-11-02T01:00:01;5.03;;;1.10;;
51636;SDS011;37713;53.254;6.460;2022-11-02T01:02:27;6.18;;;1.13;;
51636;SDS011;37713;53.254;6.460;2022-11-02T01:04:53;7.28;;;1.35;;
51636;SDS011;37713;53.254;6.460;2022-11-02T01:07:19;6.50;;;1.05;;
51636;SDS011;37713;53.254;6.460;2022-11-02T01:09:45;4.78;;;1.00;;
51636;SDS011;37713;53.254;6.460;2022-11-02T01:12:10;6.88;;;1.30;;
51636;SDS011;37713;53.254;6.460;2022-11-02T01:14:36;8.02;;;1.00;;
51636;SDS011;37713;53.254;6.460;2022-11-02T01:17:02;5.03;;;1.02;;
51636;SDS011;37713;53.254;6.460;2022-11-02T01:19:29;5.35;;;1.15;;
51636;SDS011;37713;53.254;6.460;2022-11-02T01:21:55;4.78;;;1.00;;
51636;SDS011;37713;53.254;6.460;2022-11-02T01:24:21;4.13;;;1.10;;
51636;SDS011;37713;53.254;6.460;2022-11-02T01:26:50;5.68;;;1.15;;
51636;SDS011;37713;53.254;6.460;2022-11-02T01:29:16;6.40;;;1.08;;
51636;SDS011;37713;53.254;6.460;2022-11-02T01:31:42;5.40;;;1.10;;
51636;SDS011;37713;53.254;6.460;2022-11-02T01:34:09;2.70;;;0.80;;
51636;SDS011;37713;53.254;6.460;2022-11-02T01:36:35;3.72;;;0.77;;
51636;SDS011;37713;53.254;6.460;2022-11-02T01:39:01;4.72;;;1.05;;
51636;SDS011;37713;53.254;6.460;2022-11-02T01:41:26;3.30;;;0.80;;
51636;SDS011;37713;53.254;6.460;2022-11-02T01:43:53;4.45;;;0.80;;
51636;SDS011;37713;53.254;6.460;2022-11-02T01:46:25;3.58;;;0.73;;
51636;SDS011;37713;53.254;6.460;2022-11-02T01:49:00;4.78;;;0.90;;
51636;SDS011;37713;53.254;6.460;2022-11-02T01:51:40;6.20;;;1.02;;
51636;SDS011;37713;53.254;6.460;2022-11-02T01:54:28;4.68;;;0.80;;
51636;SDS011;37713;53.254;6.460;2022-11-02T01:56:57;6.72;;;0.70;;
51636;SDS011;37713;53.254;6.460;2022-11-02T02:02:20;3.22;;;0.82;;
51636;SDS011;37713;53.254;6.460;2022-11-02T02:04:50;14.68;;;1.35;;
51636;SDS011;37713;53.254;6.460;2022-11-02T02:07:19;5.70;;;0.80;;
51636;SDS011;37713;53.254;6.460;2022-11-02T02:09:49;2.95;;;0.77;;
51636;SDS011;37713;53.254;6.460;2022-11-02T02:12:15;3.90;;;0.75;;
51636;SDS011;37713;53.254;6.460;2022-11-02T02:14:40;2.28;;;0.80;;
51636;SDS011;37713;53.254;6.460;2022-11-02T02:17:27;4.03;;;0.70;;
51636;SDS011;37713;53.254;6.460;2022-11-02T02:20:04;4.97;;;0.70;;
51636;SDS011;37713;53.254;6.460;2022-11-02T02:28:36;1.38;;;0.40;;
51636;SDS011;37713;53.254;6.460;2022-11-02T02:33:48;2.92;;;0.70;;
51636;SDS011;37713;53.254;6.460;2022-11-02T02:36:22;3.40;;;1.25;;
51636;SDS011;37713;53.254;6.460;2022-11-02T02:39:06;5.10;;;1.10;;
51636;SDS011;37713;53.254;6.460;2022-11-02T02:41:39;6.22;;;1.42;;
51636;SDS011;37713;53.254;6.460;2022-11-02T02:44:13;5.35;;;1.30;;
51636;SDS011;37713;53.254;6.460;2022-11-02T02:46:46;5.75;;;1.35;;
51636;SDS011;37713;53.254;6.460;2022-11-02T02:49:42;5.65;;;1.35;;
51636;SDS011;37713;53.254;6.460;2022-11-02T02:52:13;3.90;;;1.30;;
51636;SDS011;37713;53.254;6.460;2022-11-02T02:54:41;6.70;;;1.40;;
51636;SDS011;37713;53.254;6.460;2022-11-02T02:57:14;9.80;;;2.10;;
51636;SDS011;37713;53.254;6.460;2022-11-02T02:59:44;6.05;;;1.52;;
51636;SDS011;37713;53.254;6.460;2022-11-02T03:02:19;7.38;;;1.50;;
51636;SDS011;37713;53.254;6.460;2022-11-02T03:04:48;7.13;;;1.73;;
51636;SDS011;37713;53.254;6.460;2022-11-02T03:07:24;7.38;;;1.58;;
51636;SDS011;37713;53.254;6.460;2022-11-02T03:10:00;8.77;;;1.50;;
51636;SDS011;37713;53.254;6.460;2022-11-02T03:13:01;6.28;;;1.50;;
51636;SDS011;37713;53.254;6.460;2022-11-02T03:15:41;7.75;;;1.50;;
51636;SDS011;37713;53.254;6.460;2022-11-02T03:23:29;8.18;;;1.27;;
51636;SDS011;37713;53.254;6.460;2022-11-02T03:28:41;5.30;;;1.23;;
51636;SDS011;37713;53.254;6.460;2022-11-02T03:36:36;5.68;;;1.15;;
51636;SDS011;37713;53.254;6.460;2022-11-02T03:39:10;5.57;;;0.88;;
51636;SDS011;37713;53.254;6.460;2022-11-02T03:44:07;7.00;;;1.38;;
51636;SDS011;37713;53.254;6.460;2022-11-02T03:46:39;7.57;;;1.50;;
51636;SDS011;37713;53.254;6.460;2022-11-02T03:49:09;6.03;;;0.80;;
51636;SDS011;37713;53.254;6.460;2022-11-02T03:51:38;7.47;;;1.13;;
51636;SDS011;37713;53.254;6.460;2022-11-02T03:54:18;6.47;;;1.10;;
51636;SDS011;37713;53.254;6.460;2022-11-02T03:57:01;7.38;;;1.00;;
51636;SDS011;37713;53.254;6.460;2022-11-02T03:59:30;9.32;;;1.08;;
51636;SDS011;37713;53.254;6.460;2022-11-02T04:01:56;6.15;;;0.88;;
51636;SDS011;37713;53.254;6.460;2022-11-02T04:04:23;8.20;;;1.42;;
51636;SDS011;37713;53.254;6.460;2022-11-02T04:06:49;10.00;;;1.30;;
51636;SDS011;37713;53.254;6.460;2022-11-02T04:09:16;6.40;;;1.10;;
51636;SDS011;37713;53.254;6.460;2022-11-02T04:11:42;11.57;;;2.03;;
51636;SDS011;37713;53.254;6.460;2022-11-02T04:14:27;8.23;;;1.30;;
51636;SDS011;37713;53.254;6.460;2022-11-02T04:17:02;8.85;;;1.08;;
51636;SDS011;37713;53.254;6.460;2022-11-02T04:19:51;9.40;;;1.80;;
51636;SDS011;37713;53.254;6.460;2022-11-02T04:22:17;8.63;;;1.50;;
51636;SDS011;37713;53.254;6.460;2022-11-02T04:25:03;9.93;;;1.27;;
51636;SDS011;37713;53.254;6.460;2022-11-02T04:27:45;6.43;;;1.15;;
51636;SDS011;37713;53.254;6.460;2022-11-02T04:30:14;8.95;;;1.10;;
51636;SDS011;37713;53.254;6.460;2022-11-02T04:32:42;10.07;;;1.40;;
51636;SDS011;37713;53.254;6.460;2022-11-02T04:35:28;11.30;;;1.98;;
51636;SDS011;37713;53.254;6.460;2022-11-02T04:37:55;10.05;;;1.33;;
51636;SDS011;37713;53.254;6.460;2022-11-02T04:40:40;9.40;;;1.17;;
51636;SDS011;37713;53.254;6.460;2022-11-02T04:43:06;11.50;;;1.33;;
51636;SDS011;37713;53.254;6.460;2022-11-02T04:45:32;7.63;;;1.23;;
51636;SDS011;37713;53.254;6.460;2022-11-02T04:47:58;9.68;;;1.75;;
51636;SDS011;37713;53.254;6.460;2022-11-02T04:50:25;8.23;;;1.20;;
51636;SDS011;37713;53.254;6.460;2022-11-02T04:52:58;9.55;;;1.95;;
51636;SDS011;37713;53.254;6.460;2022-11-02T04:55:25;9.88;;;1.40;;
51636;SDS011;37713;53.254;6.460;2022-11-02T04:57:51;8.63;;;1.33;;
51636;SDS011;37713;53.254;6.460;2022-11-02T05:00:18;8.57;;;1.27;;
51636;SDS011;37713;53.254;6.460;2022-11-02T05:02:47;7.70;;;1.35;;
51636;SDS011;37713;53.254;6.460;2022-11-02T05:05:15;10.52;;;1.63;;
51636;SDS011;37713;53.254;6.460;2022-11-02T05:07:41;5.05;;;1.35;;
51636;SDS011;37713;53.254;6.460;2022-11-02T05:10:07;7.28;;;1.58;;
51636;SDS011;37713;53.254;6.460;2022-11-02T05:12:34;11.18;;;1.30;;
51636;SDS011;37713;53.254;6.460;2022-11-02T05:15:00;9.02;;;1.50;;
51636;SDS011;37713;53.254;6.460;2022-11-02T05:17:26;8.45;;;1.65;;
51636;SDS011;37713;53.254;6.460;2022-11-02T05:19:51;8.00;;;1.92;;
51636;SDS011;37713;53.254;6.460;2022-11-02T05:22:17;10.57;;;2.03;;
51636;SDS011;37713;53.254;6.460;2022-11-02T05:24:43;13.02;;;1.60;;
51636;SDS011;37713;53.254;6.460;2022-11-02T05:27:09;7.88;;;1.95;;
51636;SDS011;37713;53.254;6.460;2022-11-02T05:29:35;10.55;;;1.83;;
51636;SDS011;37713;53.254;6.460;2022-11-02T05:32:00;7.30;;;1.48;;
51636;SDS011;37713;53.254;6.460;2022-11-02T05:34:26;7.35;;;1.50;;
51636;SDS011;37713;53.254;6.460;2022-11-02T05:36:52;6.35;;;1.65;;
51636;SDS011;37713;53.254;6.460;2022-11-02T05:39:18;6.00;;;1.30;;
51636;SDS011;37713;53.254;6.460;2022-11-02T05:41:43;7.28;;;1.90;;
51636;SDS011;37713;53.254;6.460;2022-11-02T05:44:09;8.95;;;1.52;;
51636;SDS011;37713;53.254;6.460;2022-11-02T05:46:35;11.07;;;2.45;;
51636;SDS011;37713;53.254;6.460;2022-11-02T05:49:00;11.20;;;1.83;;
51636;SDS011;37713;53.254;6.460;2022-11-02T05:51:27;9.02;;;1.90;;
51636;SDS011;37713;53.254;6.460;2022-11-02T05:53:52;10.23;;;2.05;;
51636;SDS011;37713;53.254;6.460;2022-11-02T05:56:18;9.52;;;1.55;;
51636;SDS011;37713;53.254;6.460;2022-11-02T05:58:44;8.73;;;2.00;;
51636;SDS011;37713;53.254;6.460;2022-11-02T06:01:10;10.45;;;1.70;;
51636;SDS011;37713;53.254;6.460;2022-11-02T06:03:36;7.10;;;1.70;;
51636;SDS011;37713;53.254;6.460;2022-11-02T06:06:05;10.82;;;1.60;;
51636;SDS011;37713;53.254;6.460;2022-11-02T06:08:34;11.77;;;1.77;;
51636;SDS011;37713;53.254;6.460;2022-11-02T06:11:05;8.55;;;1.95;;
51636;SDS011;37713;53.254;6.460;2022-11-02T06:13:35;11.25;;;1.90;;
51636;SDS011;37713;53.254;6.460;2022-11-02T06:16:02;10.15;;;1.92;;
51636;SDS011;37713;53.254;6.460;2022-11-02T06:18:29;12.73;;;2.13;;
51636;SDS011;37713;53.254;6.460;2022-11-02T06:20:57;11.88;;;2.00;;
51636;SDS011;37713;53.254;6.460;2022-11-02T06:23:24;13.95;;;1.90;;
51636;SDS011;37713;53.254;6.460;2022-11-02T06:25:52;8.13;;;1.40;;
51636;SDS011;37713;53.254;6.460;2022-11-02T06:30:47;13.02;;;2.08;;
51636;SDS011;37713;53.254;6.460;2022-11-02T06:33:15;11.13;;;2.45;;
51636;SDS011;37713;53.254;6.460;2022-11-02T06:35:45;9.60;;;2.35;;
51636;SDS011;37713;53.254;6.460;2022-11-02T06:38:12;10.68;;;1.90;;
51636;SDS011;37713;53.254;6.460;2022-11-02T06:40:38;12.93;;;2.35;;
51636;SDS011;37713;53.254;6.460;2022-11-02T06:43:04;13.88;;;2.22;;
51636;SDS011;37713;53.254;6.460;2022-11-02T06:45:30;11.45;;;1.70;;
51636;SDS011;37713;53.254;6.460;2022-11-02T06:47:56;7.47;;;2.10;;
51636;SDS011;37713;53.254;6.460;2022-11-02T06:50:22;7.20;;;1.90;;
51636;SDS011;37713;53.254;6.460;2022-11-02T06:52:49;13.60;;;1.52;;
51636;SDS011;37713;53.254;6.460;2022-11-02T06:55:16;8.60;;;1.42;;
51636;SDS011;37713;53.254;6.460;2022-11-02T06:57:42;12.25;;;1.50;;
51636;SDS011;37713;53.254;6.460;2022-11-02T07:00:10;7.03;;;1.30;;
51636;SDS011;37713;53.254;6.460;2022-11-02T07:02:37;9.50;;;1.40;;
51636;SDS011;37713;53.254;6.460;2022-11-02T07:05:03;10.63;;;1.75;;
51636;SDS011;37713;53.254;6.460;2022-11-02T07:07:29;12.80;;;1.77;;
51636;SDS011;37713;53.254;6.460;2022-11-02T07:09:55;12.60;;;1.48;;
51636;SDS011;37713;53.254;6.460;2022-11-02T07:12:21;11.48;;;1.58;;
51636;SDS011;37713;53.254;6.460;2022-11-02T07:14:46;9.63;;;1.65;;
51636;SDS011;37713;53.254;6.460;2022-11-02T07:17:12;7.93;;;1.42;;
51636;SDS011;37713;53.254;6.460;2022-11-02T07:19:38;15.18;;;1.88;;
51636;SDS011;37713;53.254;6.460;2022-11-02T07:22:04;6.65;;;1.40;;
51636;SDS011;37713;53.254;6.460;2022-11-02T07:24:30;9.38;;;1.48;;
51636;SDS011;37713;53.254;6.460;2022-11-02T07:26:56;9.43;;;1.58;;
51636;SDS011;37713;53.254;6.460;2022-11-02T07:29:21;7.47;;;1.30;;
51636;SDS011;37713;53.254;6.460;2022-11-02T07:31:47;7.95;;;1.10;;
51636;SDS011;37713;53.254;6.460;2022-11-02T07:34:13;8.15;;;1.00;;
51636;SDS011;37713;53.254;6.460;2022-11-02T07:36:39;7.78;;;1.25;;
51636;SDS011;37713;53.254;6.460;2022-11-02T07:39:05;8.95;;;1.20;;
51636;SDS011;37713;53.254;6.460;2022-11-02T07:41:31;7.28;;;1.40;;
51636;SDS011;37713;53.254;6.460;2022-11-02T07:43:58;8.50;;;1.20;;
51636;SDS011;37713;53.254;6.460;2022-11-02T07:46:24;8.88;;;1.40;;
51636;SDS011;37713;53.254;6.460;2022-11-02T07:48:49;7.07;;;1.50;;
51636;SDS011;37713;53.254;6.460;2022-11-02T07:51:15;8.13;;;1.33;;
51636;SDS011;37713;53.254;6.460;2022-11-02T07:53:41;9.55;;;1.75;;
51636;SDS011;37713;53.254;6.460;2022-11-02T07:56:07;10.32;;;1.27;;
51636;SDS011;37713;53.254;6.460;2022-11-02T07:58:33;6.55;;;1.27;;
51636;SDS011;37713;53.254;6.460;2022-11-02T08:00:59;5.80;;;1.35;;
51636;SDS011;37713;53.254;6.460;2022-11-02T08:03:26;10.40;;;1.85;;
51636;SDS011;37713;53.254;6.460;2022-11-02T08:05:53;8.45;;;1.33;;
51636;SDS011;37713;53.254;6.460;2022-11-02T08:08:20;8.05;;;1.10;;
51636;SDS011;37713;53.254;6.460;2022-11-02T08:10:48;9.50;;;1.48;;
51636;SDS011;37713;53.254;6.460;2022-11-02T08:13:16;10.73;;;1.80;;
51636;SDS011;37713;53.254;6.460;2022-11-02T08:15:49;9.48;;;1.55;;
51636;SDS011;37713;53.254;6.460;2022-11-02T08:20:43;8.95;;;1.52;;
51636;SDS011;37713;53.254;6.460;2022-11-02T08:23:10;9.35;;;1.52;;
51636;SDS011;37713;53.254;6.460;2022-11-02T08:25:37;8.18;;;1.67;;
51636;SDS011;37713;53.254;6.460;2022-11-02T08:28:03;13.30;;;1.67;;
51636;SDS011;37713;53.254;6.460;2022-11-02T08:30:30;8.70;;;1.40;;
51636;SDS011;37713;53.254;6.460;2022-11-02T08:33:04;8.70;;;2.10;;
51636;SDS011;37713;53.254;6.460;2022-11-02T08:35:37;8.65;;;1.30;;
51636;SDS011;37713;53.254;6.460;2022-11-02T08:38:04;10.50;;;1.48;;
51636;SDS011;37713;53.254;6.460;2022-11-02T08:40:31;11.90;;;1.60;;
51636;SDS011;37713;53.254;6.460;2022-11-02T08:43:01;11.18;;;1.65;;
51636;SDS011;37713;53.254;6.460;2022-11-02T08:45:29;9.13;;;1.58;;
51636;SDS011;37713;53.254;6.460;2022-11-02T08:47:55;6.22;;;1.20;;
51636;SDS011;37713;53.254;6.460;2022-11-02T08:50:22;12.55;;;1.88;;
51636;SDS011;37713;53.254;6.460;2022-11-02T08:52:48;9.80;;;1.70;;
51636;SDS011;37713;53.254;6.460;2022-11-02T08:55:14;11.80;;;1.77;;
51636;SDS011;37713;53.254;6.460;2022-11-02T08:57:47;9.80;;;1.50;;
51636;SDS011;37713;53.254;6.460;2022-11-02T09:00:15;8.70;;;1.45;;
51636;SDS011;37713;53.254;6.460;2022-11-02T09:05:22;8.40;;;1.35;;
51636;SDS011;37713;53.254;6.460;2022-11-02T09:07:47;9.40;;;1.27;;
51636;SDS011;37713;53.254;6.460;2022-11-02T09:10:18;10.55;;;1.45;;
51636;SDS011;37713;53.254;6.460;2022-11-02T09:12:43;10.18;;;1.52;;
51636;SDS011;37713;53.254;6.460;2022-11-02T09:15:09;11.23;;;1.80;;
51636;SDS011;37713;53.254;6.460;2022-11-02T09:17:35;13.85;;;1.70;;
51636;SDS011;37713;53.254;6.460;2022-11-02T09:20:01;10.13;;;1.83;;
51636;SDS011;37713;53.254;6.460;2022-11-02T09:22:27;7.85;;;1.50;;
51636;SDS011;37713;53.254;6.460;2022-11-02T09:24:52;9.70;;;1.52;;
51636;SDS011;37713;53.254;6.460;2022-11-02T09:27:18;18.33;;;1.80;;
51636;SDS011;37713;53.254;6.460;2022-11-02T09:29:44;12.77;;;1.70;;
51636;SDS011;37713;53.254;6.460;2022-11-02T09:32:09;16.48;;;1.92;;
51636;SDS011;37713;53.254;6.460;2022-11-02T09:34:35;11.63;;;1.92;;
51636;SDS011;37713;53.254;6.460;2022-11-02T09:37:01;12.63;;;1.92;;
51636;SDS011;37713;53.254;6.460;2022-11-02T09:39:26;9.32;;;1.30;;
51636;SDS011;37713;53.254;6.460;2022-11-02T09:47:25;11.38;;;2.33;;
51636;SDS011;37713;53.254;6.460;2022-11-02T09:49:53;11.88;;;1.90;;
51636;SDS011;37713;53.254;6.460;2022-11-02T09:52:31;13.05;;;1.80;;
51636;SDS011;37713;53.254;6.460;2022-11-02T09:55:01;13.30;;;1.65;;
51636;SDS011;37713;53.254;6.460;2022-11-02T09:57:31;11.18;;;2.20;;
51636;SDS011;37713;53.254;6.460;2022-11-02T09:59:58;10.80;;;1.58;;
51636;SDS011;37713;53.254;6.460;2022-11-02T10:05:38;12.95;;;1.75;;
51636;SDS011;37713;53.254;6.460;2022-11-02T10:15:53;9.70;;;1.65;;
51636;SDS011;37713;53.254;6.460;2022-11-02T10:18:23;11.73;;;1.90;;
51636;SDS011;37713;53.254;6.460;2022-11-02T10:20:55;14.73;;;2.55;;
51636;SDS011;37713;53.254;6.460;2022-11-02T10:23:33;8.80;;;1.73;;
51636;SDS011;37713;53.254;6.460;2022-11-02T10:26:15;12.60;;;2.75;;
51636;SDS011;37713;53.254;6.460;2022-11-02T10:28:56;14.05;;;1.65;;
51636;SDS011;37713;53.254;6.460;2022-11-02T10:31:25;16.40;;;2.25;;
51636;SDS011;37713;53.254;6.460;2022-11-02T10:33:58;10.95;;;2.10;;
51636;SDS011;37713;53.254;6.460;2022-11-02T10:36:44;9.15;;;1.98;;
51636;SDS011;37713;53.254;6.460;2022-11-02T10:39:34;9.32;;;1.63;;
51636;SDS011;37713;53.254;6.460;2022-11-02T10:47:23;13.82;;;1.50;;
51636;SDS011;37713;53.254;6.460;2022-11-02T10:52:21;10.00;;;1.77;;
51636;SDS011;37713;53.254;6.460;2022-11-02T10:54:49;16.10;;;2.83;;
51636;SDS011;37713;53.254;6.460;2022-11-02T10:57:17;10.48;;;1.70;;
51636;SDS011;37713;53.254;6.460;2022-11-02T11:03:03;13.85;;;1.60;;
51636;SDS011;37713;53.254;6.460;2022-11-02T11:05:31;10.82;;;1.23;;
51636;SDS011;37713;53.254;6.460;2022-11-02T11:07:58;10.02;;;1.58;;
51636;SDS011;37713;53.254;6.460;2022-11-02T11:10:24;9.63;;;1.85;;
51636;SDS011;37713;53.254;6.460;2022-11-02T11:12:51;9.95;;;1.73;;
51636;SDS011;37713;53.254;6.460;2022-11-02T11:15:24;10.98;;;1.42;;
51636;SDS011;37713;53.254;6.460;2022-11-02T11:17:54;13.20;;;2.40;;
51636;SDS011;37713;53.254;6.460;2022-11-02T11:20:30;11.00;;;1.40;;
51636;SDS011;37713;53.254;6.460;2022-11-02T11:25:36;10.25;;;1.63;;
51636;SDS011;37713;53.254;6.460;2022-11-02T11:28:07;13.23;;;1.30;;
51636;SDS011;37713;53.254;6.460;2022-11-02T11:30:47;7.70;;;1.33;;
51636;SDS011;37713;53.254;6.460;2022-11-02T11:33:26;9.82;;;1.35;;
51636;SDS011;37713;53.254;6.460;2022-11-02T11:35:52;8.70;;;1.75;;
51636;SDS011;37713;53.254;6.460;2022-11-02T11:38:20;12.43;;;1.75;;
51636;SDS011;37713;53.254;6.460;2022-11-02T11:40:48;13.85;;;2.22;;
51636;SDS011;37713;53.254;6.460;2022-11-02T11:43:18;9.48;;;1.58;;
51636;SDS011;37713;53.254;6.460;2022-11-02T11:45:59;8.95;;;1.70;;
51636;SDS011;37713;53.254;6.460;2022-11-02T11:48:32;11.80;;;2.00;;
51636;SDS011;37713;53.254;6.460;2022-11-02T11:54:41;8.45;;;1.65;;
51636;SDS011;37713;53.254;6.460;2022-11-02T11:56:51;9.15;;;1.45;;
51636;SDS011;37713;53.254;6.460;2022-11-02T11:59:23;7.82;;;1.35;;
51636;SDS011;37713;53.254;6.460;2022-11-02T12:01:56;8.05;;;1.35;;
51636;SDS011;37713;53.254;6.460;2022-11-02T12:04:31;8.55;;;0.93;;
51636;SDS011;37713;53.254;6.460;2022-11-02T12:09:55;7.50;;;1.13;;
51636;SDS011;37713;53.254;6.460;2022-11-02T12:21:06;8.93;;;1.55;;
51636;SDS011;37713;53.254;6.460;2022-11-02T12:32:02;12.30;;;1.55;;
51636;SDS011;37713;53.254;6.460;2022-11-02T12:37:24;8.00;;;1.42;;
51636;SDS011;37713;53.254;6.460;2022-11-02T12:43:37;8.88;;;1.25;;
51636;SDS011;37713;53.254;6.460;2022-11-02T12:48:38;12.70;;;1.50;;
51636;SDS011;37713;53.254;6.460;2022-11-02T12:51:22;12.75;;;1.70;;
51636;SDS011;37713;53.254;6.460;2022-11-02T12:54:09;10.57;;;1.70;;
51636;SDS011;37713;53.254;6.460;2022-11-02T12:56:46;7.63;;;1.05;;
51636;SDS011;37713;53.254;6.460;2022-11-02T12:59:35;7.40;;;1.48;;
51636;SDS011;37713;53.254;6.460;2022-11-02T13:02:08;9.55;;;1.63;;
51636;SDS011;37713;53.254;6.460;2022-11-02T13:04:50;10.98;;;1.48;;
51636;SDS011;37713;53.254;6.460;2022-11-02T13:07:17;8.75;;;1.42;;
51636;SDS011;37713;53.254;6.460;2022-11-02T13:12:57;8.52;;;1.50;;
51636;SDS011;37713;53.254;6.460;2022-11-02T13:15:25;9.57;;;1.50;;
51636;SDS011;37713;53.254;6.460;2022-11-02T13:17:55;9.65;;;1.45;;
51636;SDS011;37713;53.254;6.460;2022-11-02T13:20:28;13.73;;;1.73;;
51636;SDS011;37713;53.254;6.460;2022-11-02T13:23:27;10.48;;;1.90;;
51636;SDS011;37713;53.254;6.460;2022-11-02T13:25:59;7.97;;;1.27;;
51636;SDS011;37713;53.254;6.460;2022-11-02T13:28:30;8.82;;;1.80;;
51636;SDS011;37713;53.254;6.460;2022-11-02T13:31:02;9.15;;;1.30;;
51636;SDS011;37713;53.254;6.460;2022-11-02T13:33:36;8.10;;;1.48;;
51636;SDS011;37713;53.254;6.460;2022-11-02T13:36:07;9.77;;;1.45;;
51636;SDS011;37713;53.254;6.460;2022-11-02T13:41:36;9.93;;;1.20;;
51636;SDS011;37713;53.254;6.460;2022-11-02T13:50:02;11.93;;;2.05;;
51636;SDS011;37713;53.254;6.460;2022-11-02T13:52:37;8.13;;;1.30;;
51636;SDS011;37713;53.254;6.460;2022-11-02T13:55:07;10.60;;;1.60;;
51636;SDS011;37713;53.254;6.460;2022-11-02T13:57:40;9.80;;;1.48;;
51636;SDS011;37713;53.254;6.460;2022-11-02T14:03:05;13.23;;;1.77;;
51636;SDS011;37713;53.254;6.460;2022-11-02T14:05:40;12.15;;;1.50;;
51636;SDS011;37713;53.254;6.460;2022-11-02T14:08:15;11.80;;;1.50;;
51636;SDS011;37713;53.254;6.460;2022-11-02T14:11:01;10.57;;;1.50;;
51636;SDS011;37713;53.254;6.460;2022-11-02T14:22:24;8.48;;;1.38;;
51636;SDS011;37713;53.254;6.460;2022-11-02T14:40:28;8.15;;;1.42;;
51636;SDS011;37713;53.254;6.460;2022-11-02T14:48:54;10.70;;;1.42;;
51636;SDS011;37713;53.254;6.460;2022-11-02T14:51:29;8.60;;;1.98;;
51636;SDS011;37713;53.254;6.460;2022-11-02T14:54:07;12.07;;;1.77;;
51636;SDS011;37713;53.254;6.460;2022-11-02T14:56:48;14.18;;;2.50;;
51636;SDS011;37713;53.254;6.460;2022-11-02T14:59:31;14.60;;;1.67;;
51636;SDS011;37713;53.254;6.460;2022-11-02T15:04:49;10.50;;;1.63;;
51636;SDS011;37713;53.254;6.460;2022-11-02T15:07:22;12.07;;;1.55;;
51636;SDS011;37713;53.254;6.460;2022-11-02T15:12:40;13.02;;;1.60;;
51636;SDS011;37713;53.254;6.460;2022-11-02T15:17:53;10.65;;;1.70;;
51636;SDS011;37713;53.254;6.460;2022-11-02T15:20:31;10.40;;;2.13;;
51636;SDS011;37713;53.254;6.460;2022-11-02T15:23:03;9.18;;;1.48;;
51636;SDS011;37713;53.254;6.460;2022-11-02T15:25:59;9.02;;;1.85;;
51636;SDS011;37713;53.254;6.460;2022-11-02T15:28:29;10.93;;;1.77;;
51636;SDS011;37713;53.254;6.460;2022-11-02T15:30:59;9.23;;;1.67;;
51636;SDS011;37713;53.254;6.460;2022-11-02T15:35:58;12.15;;;1.73;;
51636;SDS011;37713;53.254;6.460;2022-11-02T15:38:26;11.15;;;1.50;;
51636;SDS011;37713;53.254;6.460;2022-11-02T15:55:05;11.25;;;1.70;;
51636;SDS011;37713;53.254;6.460;2022-11-02T16:00:27;12.00;;;1.90;;
51636;SDS011;37713;53.254;6.460;2022-11-02T16:03:05;10.10;;;2.03;;
51636;SDS011;37713;53.254;6.460;2022-11-02T16:05:43;12.10;;;1.85;;
51636;SDS011;37713;53.254;6.460;2022-11-02T16:11:11;12.32;;;2.60;;
51636;SDS011;37713;53.254;6.460;2022-11-02T16:13:41;12.80;;;2.72;;
51636;SDS011;37713;53.254;6.460;2022-11-02T16:16:12;12.60;;;2.20;;
51636;SDS011;37713;53.254;6.460;2022-11-02T16:18:40;11.82;;;2.33;;
51636;SDS011;37713;53.254;6.460;2022-11-02T16:21:11;12.77;;;2.45;;
51636;SDS011;37713;53.254;6.460;2022-11-02T16:23:40;10.95;;;2.28;;
51636;SDS011;37713;53.254;6.460;2022-11-02T16:26:13;14.15;;;2.45;;
51636;SDS011;37713;53.254;6.460;2022-11-02T16:28:50;12.20;;;2.25;;
51636;SDS011;37713;53.254;6.460;2022-11-02T16:31:22;12.70;;;2.08;;
51636;SDS011;37713;53.254;6.460;2022-11-02T16:33:55;15.40;;;2.40;;
51636;SDS011;37713;53.254;6.460;2022-11-02T16:36:41;13.10;;;2.88;;
51636;SDS011;37713;53.254;6.460;2022-11-02T16:39:26;16.52;;;2.88;;
51636;SDS011;37713;53.254;6.460;2022-11-02T16:41:54;11.10;;;2.47;;
51636;SDS011;37713;53.254;6.460;2022-11-02T16:52:18;9.50;;;2.20;;
51636;SDS011;37713;53.254;6.460;2022-11-02T16:54:47;13.68;;;2.40;;
51636;SDS011;37713;53.254;6.460;2022-11-02T16:57:29;15.23;;;2.50;;
51636;SDS011;37713;53.254;6.460;2022-11-02T17:02:39;9.45;;;2.17;;
51636;SDS011;37713;53.254;6.460;2022-11-02T17:05:27;13.75;;;2.70;;
51636;SDS011;37713;53.254;6.460;2022-11-02T17:08:05;11.02;;;2.05;;
51636;SDS011;37713;53.254;6.460;2022-11-02T17:10:43;12.50;;;2.78;;
51636;SDS011;37713;53.254;6.460;2022-11-02T17:13:12;14.77;;;2.38;;
51636;SDS011;37713;53.254;6.460;2022-11-02T17:15:43;13.15;;;2.58;;
51636;SDS011;37713;53.254;6.460;2022-11-02T17:18:14;10.15;;;2.13;;
51636;SDS011;37713;53.254;6.460;2022-11-02T17:20:46;13.07;;;2.20;;
51636;SDS011;37713;53.254;6.460;2022-11-02T17:23:36;9.00;;;2.05;;
51636;SDS011;37713;53.254;6.460;2022-11-02T17:31:27;13.07;;;2.30;;
51636;SDS011;37713;53.254;6.460;2022-11-02T17:33:59;13.13;;;3.10;;
51636;SDS011;37713;53.254;6.460;2022-11-02T17:36:32;16.92;;;3.22;;
51636;SDS011;37713;53.254;6.460;2022-11-02T17:39:08;12.48;;;3.10;;
51636;SDS011;37713;53.254;6.460;2022-11-02T17:41:38;12.88;;;3.22;;
51636;SDS011;37713;53.254;6.460;2022-11-02T17:44:23;17.90;;;3.13;;
51636;SDS011;37713;53.254;6.460;2022-11-02T17:46:49;13.75;;;3.00;;
51636;SDS011;37713;53.254;6.460;2022-11-02T17:49:15;11.40;;;2.72;;
51636;SDS011;37713;53.254;6.460;2022-11-02T17:51:40;15.43;;;3.08;;
51636;SDS011;37713;53.254;6.460;2022-11-02T17:54:11;12.75;;;2.42;;
51636;SDS011;37713;53.254;6.460;2022-11-02T17:56:38;16.30;;;2.85;;
51636;SDS011;37713;53.254;6.460;2022-11-02T17:59:04;11.88;;;2.60;;
51636;SDS011;37713;53.254;6.460;2022-11-02T18:01:30;13.05;;;2.78;;
51636;SDS011;37713;53.254;6.460;2022-11-02T18:03:56;12.48;;;2.83;;
51636;SDS011;37713;53.254;6.460;2022-11-02T18:06:22;11.13;;;2.40;;
51636;SDS011;37713;53.254;6.460;2022-11-02T18:08:48;11.27;;;2.30;;